createdAt,value
2023-03-06T00:00:07.774Z,26.09
2023-03-06T00:01:07.561Z,26.18
2023-03-06T00:02:07.556Z,26.09
2023-03-06T00:03:07.498Z,26.12
2023-03-06T00:04:07.495Z,26.08
2023-03-06T00:05:07.436Z,26.14
2023-03-06T00:06:07.497Z,26.09
2023-03-06T00:07:07.388Z,26.12
2023-03-06T00:08:07.329Z,26.18
2023-03-06T00:09:07.326Z,26.12
2023-03-06T00:10:07.295Z,26.16
2023-03-06T00:11:07.261Z,26.13
2023-03-06T00:12:07.309Z,26.14
2023-03-06T00:13:07.177Z,26.14
2023-03-06T00:14:07.156Z,26.16
2023-03-06T00:15:07.174Z,26.13
2023-03-06T00:16:07.205Z,26.17
2023-03-06T00:17:07.060Z,26.17
2023-03-06T00:18:07.116Z,26.12
2023-03-06T00:19:06.989Z,26.16
2023-03-06T00:20:06.981Z,26.17
2023-03-06T00:21:06.940Z,26.16
2023-03-06T00:22:06.901Z,26.17
2023-03-06T00:23:06.873Z,26.14
2023-03-06T00:24:06.903Z,26.13
2023-03-06T00:25:06.839Z,26.19
2023-03-06T00:26:06.803Z,26.16
2023-03-06T00:27:06.785Z,26.16
2023-03-06T00:28:06.776Z,26.16
2023-03-06T00:29:06.804Z,26.17
2023-03-06T00:30:06.795Z,26.16
2023-03-06T00:31:06.729Z,26.14
2023-03-06T00:32:06.679Z,26.16
2023-03-06T00:33:06.611Z,26.16
2023-03-06T00:34:06.578Z,26.16
2023-03-06T00:35:06.584Z,26.19
2023-03-06T00:36:06.537Z,26.17
2023-03-06T00:37:06.495Z,26.12
2023-03-06T00:38:06.457Z,26.17
2023-03-06T00:39:06.432Z,26.13
2023-03-06T00:40:06.510Z,26.17
2023-03-06T00:41:06.379Z,26.12
2023-03-06T00:42:06.344Z,26.14
2023-03-06T00:43:06.329Z,26.13
2023-03-06T00:44:06.344Z,26.19
2023-03-06T00:45:06.285Z,26.16
2023-03-06T00:46:06.302Z,26.17
2023-03-06T00:47:06.204Z,26.17
2023-03-06T00:48:06.156Z,26.13
2023-03-06T00:49:06.166Z,26.17
2023-03-06T00:50:06.148Z,26.20
2023-03-06T00:51:06.057Z,26.16
2023-03-06T00:52:06.128Z,26.17
2023-03-06T00:53:06.018Z,26.13
2023-03-06T00:54:05.991Z,26.22
2023-03-06T00:55:05.968Z,26.17
2023-03-06T00:56:05.928Z,26.17
2023-03-06T00:57:05.897Z,26.16
2023-03-06T00:58:05.894Z,26.17
2023-03-06T00:59:05.854Z,26.16
2023-03-06T01:00:05.802Z,26.17
2023-03-06T01:01:05.822Z,26.20
2023-03-06T01:02:05.785Z,26.18
2023-03-06T01:03:05.708Z,26.17
2023-03-06T01:04:05.774Z,26.18
2023-03-06T01:05:05.661Z,26.23
2023-03-06T01:06:05.649Z,26.22
2023-03-06T01:07:05.633Z,26.17
2023-03-06T01:08:05.582Z,26.23
2023-03-06T01:09:05.558Z,26.17
2023-03-06T01:10:05.504Z,26.18
2023-03-06T01:11:05.478Z,26.20
2023-03-06T01:12:05.433Z,26.17
2023-03-06T01:13:05.475Z,26.18
2023-03-06T01:14:05.368Z,26.18
2023-03-06T01:15:05.377Z,26.21
2023-03-06T01:16:05.334Z,26.17
2023-03-06T02:54:02.410Z,22.32
2023-03-06T02:55:02.384Z,22.15
2023-03-06T02:56:02.360Z,22.02
2023-03-06T02:57:02.350Z,22.09
2023-03-06T02:58:02.328Z,21.51
2023-03-06T02:59:02.284Z,21.39
2023-03-06T03:00:02.255Z,21.51
2023-03-06T03:01:02.254Z,21.32
2023-03-06T03:02:02.209Z,21.17
2023-03-06T03:03:02.193Z,21.19
2023-03-06T03:04:02.175Z,21.23
2023-03-06T03:05:02.163Z,21.20
2023-03-06T03:06:02.112Z,20.67
2023-03-06T03:07:02.101Z,20.62
2023-03-06T03:08:02.113Z,20.68
2023-03-06T03:09:02.048Z,20.68
2023-03-06T03:10:02.066Z,20.48
2023-03-06T03:11:02.026Z,20.36
2023-03-06T03:12:01.989Z,20.28
2023-03-06T03:13:01.960Z,20.61
2023-03-06T03:14:01.950Z,20.31
2023-03-06T03:15:01.960Z,20.25
2023-03-06T03:16:02.008Z,20.05
2023-03-06T03:17:01.862Z,20.03
2023-03-06T03:19:01.846Z,19.94
2023-03-06T03:20:01.804Z,19.84
2023-03-06T03:21:01.759Z,19.76
2023-03-06T03:22:01.758Z,19.83
2023-03-06T03:23:01.730Z,19.98
2023-03-06T03:24:01.694Z,19.73
2023-03-06T03:25:01.746Z,19.80
2023-03-06T03:26:01.693Z,19.64
2023-03-06T03:27:01.635Z,19.75
2023-03-06T03:28:01.614Z,19.69
2023-03-06T03:29:01.572Z,19.70
2023-03-06T03:30:01.570Z,19.48
2023-03-06T03:31:01.544Z,19.64
2023-03-06T03:32:01.519Z,19.85
2023-03-06T03:33:01.549Z,19.51
2023-03-06T03:34:02.234Z,19.71
2023-03-06T03:35:01.442Z,19.39
2023-03-06T03:36:01.473Z,19.26
2023-03-06T03:37:01.420Z,19.50
2023-03-06T03:38:01.451Z,19.59
2023-03-06T03:39:01.392Z,19.50
2023-03-06T03:40:01.372Z,19.26
2023-03-06T03:41:01.400Z,19.56
2023-03-06T03:42:01.329Z,19.70
2023-03-06T03:43:01.323Z,19.51
2023-03-06T03:44:01.301Z,19.73
2023-03-06T03:45:01.268Z,19.50
2023-03-06T03:46:01.292Z,19.20
2023-03-06T03:47:01.281Z,19.17
2023-03-06T03:48:01.268Z,19.20
2023-03-06T03:49:01.229Z,19.02
2023-03-06T03:50:01.205Z,19.26
2023-03-06T03:51:01.162Z,19.46
2023-03-06T03:52:01.140Z,18.97
2023-03-06T03:53:01.178Z,19.29
2023-03-06T03:54:01.139Z,19.25
2023-03-06T03:55:01.111Z,18.92
2023-03-06T03:56:01.064Z,18.92
2023-03-06T03:57:01.042Z,19.14
2023-03-06T03:58:01.056Z,19.03
2023-03-06T03:59:01.039Z,19.09
2023-03-06T04:00:00.974Z,19.12
2023-03-06T04:01:00.959Z,18.81
2023-03-06T04:02:01.026Z,18.98
2023-03-06T04:03:00.944Z,18.99
2023-03-06T04:04:00.909Z,19.18
2023-03-06T04:05:00.911Z,18.59
2023-03-06T04:06:00.933Z,19.06
2023-03-06T04:07:00.865Z,19.18
2023-03-06T04:08:00.817Z,19.03
2023-03-06T04:09:00.778Z,18.42
2023-03-06T04:10:00.776Z,18.64
2023-03-06T04:11:00.746Z,18.59
2023-03-06T04:12:00.724Z,18.64
2023-03-06T04:13:00.739Z,18.69
2023-03-06T04:14:00.677Z,18.64
2023-03-06T04:15:00.650Z,19.02
2023-03-06T04:16:00.655Z,18.70
2023-03-06T04:17:00.889Z,18.70
2023-03-06T04:18:00.591Z,18.44
2023-03-06T04:19:00.618Z,18.62
2023-03-06T04:20:00.539Z,18.40
2023-03-06T04:21:00.488Z,18.48
2023-03-06T04:22:01.079Z,18.69
2023-03-06T04:23:00.484Z,18.64
2023-03-06T04:24:00.462Z,18.44
2023-03-06T04:25:00.425Z,18.45
2023-03-06T04:26:00.393Z,18.36
2023-03-06T04:27:00.429Z,18.58
2023-03-06T04:28:00.370Z,18.31
2023-03-06T04:29:00.414Z,18.62
2023-03-06T04:30:00.400Z,18.42
2023-03-06T04:31:00.300Z,18.16
2023-03-06T04:32:00.338Z,18.53
2023-03-06T04:33:00.272Z,18.37
2023-03-06T04:34:00.333Z,18.56
2023-03-06T04:35:00.212Z,18.67
2023-03-06T04:36:00.211Z,18.27
2023-03-06T04:37:00.217Z,18.28
2023-03-06T04:38:00.215Z,18.29
2023-03-06T04:39:00.362Z,18.08
2023-03-06T04:40:00.156Z,18.34
2023-03-06T04:41:00.130Z,18.19
2023-03-06T04:42:00.096Z,18.11
2023-03-06T04:43:00.257Z,18.00
2023-03-06T04:44:00.074Z,18.22
2023-03-06T04:45:00.088Z,18.20
2023-03-06T04:46:00.137Z,18.19
2023-03-06T04:46:59.987Z,18.28
2023-03-06T04:48:00.029Z,18.03
2023-03-06T04:48:59.964Z,18.17
2023-03-06T04:49:59.972Z,18.20
2023-03-06T04:50:59.935Z,18.12
2023-03-06T04:51:59.923Z,18.06
2023-03-06T04:52:59.892Z,18.08
2023-03-06T04:53:59.888Z,18.11
2023-03-06T04:54:59.862Z,18.09
2023-03-06T04:55:59.829Z,18.22
2023-03-06T04:56:59.801Z,18.23
2023-03-06T04:57:59.850Z,17.88
2023-03-06T04:58:59.893Z,17.99
2023-03-06T04:59:59.849Z,18.06
2023-03-06T05:00:59.851Z,18.15
2023-03-06T05:01:59.877Z,18.05
2023-03-06T05:02:59.912Z,18.06
2023-03-06T05:03:59.959Z,17.74
2023-03-06T05:05:00.000Z,17.66
2023-03-06T05:06:00.064Z,18.06
2023-03-06T05:07:00.147Z,17.97
2023-03-06T05:08:00.143Z,18.01
2023-03-06T05:09:00.164Z,18.18
2023-03-06T05:10:00.225Z,17.89
2023-03-06T05:11:00.256Z,18.00
2023-03-06T05:12:00.304Z,17.84
2023-03-06T05:13:00.339Z,17.92
2023-03-06T05:14:00.392Z,17.81
2023-03-06T05:15:00.379Z,17.84
2023-03-06T05:16:00.297Z,17.55
2023-03-06T05:17:00.302Z,17.98
2023-03-06T05:18:00.268Z,18.12
2023-03-06T05:19:00.247Z,17.86
2023-03-06T05:20:00.290Z,18.12
2023-03-06T05:21:00.230Z,17.86
2023-03-06T05:22:00.255Z,17.47
2023-03-06T05:23:00.219Z,17.72
2023-03-06T05:24:00.275Z,17.70
2023-03-06T05:25:00.186Z,17.78
2023-03-06T05:26:00.175Z,17.80
2023-03-06T05:27:00.202Z,17.81
2023-03-06T05:28:00.125Z,17.53
2023-03-06T05:29:00.187Z,17.67
2023-03-06T05:30:00.175Z,17.81
2023-03-06T05:31:01.700Z,17.58
2023-03-06T05:32:00.223Z,17.98
2023-03-06T05:33:00.084Z,17.72
2023-03-06T05:34:00.143Z,17.47
2023-03-06T05:35:00.037Z,17.67
2023-03-06T05:36:00.106Z,17.80
2023-03-06T05:37:00.002Z,17.75
2023-03-06T05:38:00.002Z,17.55
2023-03-06T05:38:59.966Z,17.67
2023-03-06T05:39:59.979Z,17.47
2023-03-06T05:40:59.952Z,17.78
2023-03-06T05:41:59.911Z,17.72
2023-03-06T05:42:59.969Z,17.81
2023-03-06T05:43:59.881Z,17.98
2023-03-06T05:44:59.886Z,17.69
2023-03-06T05:45:59.898Z,17.72
2023-03-06T05:46:59.818Z,18.04
2023-03-06T05:47:59.923Z,17.67
2023-03-06T05:48:59.789Z,17.68
2023-03-06T05:49:59.791Z,17.68
2023-03-06T05:50:59.808Z,17.50
2023-03-06T05:51:59.766Z,17.33
2023-03-06T05:52:59.740Z,17.76
2023-03-06T05:53:59.741Z,17.73
2023-03-06T05:54:59.700Z,17.72
2023-03-06T05:55:59.719Z,18.12
2023-03-06T05:56:59.727Z,17.46
2023-03-06T05:57:59.726Z,17.96
2023-03-06T05:58:59.636Z,17.87
2023-03-06T05:59:59.635Z,17.75
2023-03-06T06:00:59.669Z,17.66
2023-03-06T06:01:59.638Z,18.33
2023-03-06T06:02:59.569Z,18.41
2023-03-06T06:03:59.572Z,18.82
2023-03-06T06:04:59.592Z,18.74
2023-03-06T06:05:59.539Z,18.69
2023-03-06T06:06:59.534Z,18.46
2023-03-06T06:07:59.494Z,18.42
2023-03-06T06:08:59.460Z,18.51
2023-03-06T06:09:59.481Z,18.62
2023-03-06T06:10:59.416Z,18.59
2023-03-06T06:11:59.416Z,18.61
2023-03-06T06:12:59.415Z,18.71
2023-03-06T06:13:59.377Z,18.79
2023-03-06T06:14:59.345Z,18.82
2023-03-06T06:15:59.381Z,18.92
2023-03-06T06:16:59.279Z,18.95
2023-03-06T06:17:59.364Z,18.99
2023-03-06T06:18:59.264Z,19.08
2023-03-06T06:19:59.236Z,19.17
2023-03-06T06:20:59.188Z,19.12
2023-03-06T06:21:59.161Z,19.20
2023-03-06T06:22:59.125Z,19.23
2023-03-06T06:23:59.094Z,19.34
2023-03-06T06:24:59.136Z,19.35
2023-03-06T06:25:59.058Z,19.40
2023-03-06T06:26:59.250Z,19.42
2023-03-06T06:27:59.006Z,19.54
2023-03-06T06:29:00.246Z,19.56
2023-03-06T06:29:59.097Z,19.61
2023-03-06T06:30:59.303Z,19.61
2023-03-06T06:31:59.049Z,19.78
2023-03-06T06:32:59.203Z,20.13
2023-03-06T06:33:58.908Z,19.54
2023-03-06T06:34:58.836Z,19.82
2023-03-06T06:35:59.557Z,19.51
2023-03-06T06:36:59.021Z,18.92
2023-03-06T06:37:58.759Z,19.43
2023-03-06T06:38:58.837Z,19.18
2023-03-06T06:39:59.431Z,19.09
2023-03-06T06:41:33.072Z,19.69
2023-03-06T06:42:15.450Z,20.01
2023-03-06T06:42:58.739Z,20.61
2023-03-06T06:43:59.110Z,20.94
2023-03-06T06:44:58.749Z,21.23
2023-03-06T06:46:19.592Z,21.89
2023-03-06T06:47:21.707Z,21.88
2023-03-06T06:47:59.873Z,22.59
2023-03-06T06:48:58.552Z,22.52
2023-03-06T06:49:59.844Z,22.98
2023-03-06T06:50:59.584Z,23.03
2023-03-06T06:52:00.601Z,23.03
2023-03-06T06:52:58.557Z,23.44
2023-03-06T06:53:59.437Z,23.99
2023-03-06T06:54:58.425Z,24.02
2023-03-06T06:56:01.367Z,23.94
2023-03-06T06:56:58.419Z,24.23
2023-03-06T06:57:58.331Z,24.07
2023-03-06T06:59:13.974Z,24.06
2023-03-06T06:59:59.393Z,24.22
2023-03-06T07:00:58.460Z,24.12
2023-03-06T07:01:58.266Z,24.26
2023-03-06T07:02:58.311Z,24.22
2023-03-06T07:03:58.232Z,24.24
2023-03-06T07:05:04.319Z,24.39
2023-03-06T07:05:59.160Z,24.40
2023-03-06T07:06:58.370Z,24.56
2023-03-06T07:07:58.113Z,24.48
2023-03-06T07:08:58.082Z,24.51
2023-03-06T07:09:58.076Z,24.55
2023-03-06T07:10:58.036Z,24.57
2023-03-06T07:11:58.199Z,24.70
2023-03-06T07:12:57.971Z,24.71
2023-03-06T07:13:57.963Z,24.60
2023-03-06T07:14:57.988Z,24.57
2023-03-06T07:15:57.994Z,24.71
2023-03-06T07:16:57.951Z,24.82
2023-03-06T07:17:57.904Z,24.95
2023-03-06T07:18:58.080Z,24.75
2023-03-06T07:20:00.739Z,24.77
2023-03-06T07:20:59.264Z,24.84
2023-03-06T07:21:57.766Z,25.03
2023-03-06T07:22:57.731Z,24.80
2023-03-06T07:23:58.368Z,24.57
2023-03-06T07:24:57.677Z,24.46
2023-03-06T07:25:57.589Z,24.49
2023-03-06T07:26:57.650Z,24.57
2023-03-06T07:27:57.534Z,24.42
2023-03-06T07:28:57.505Z,24.55
2023-03-06T07:29:57.455Z,24.53
2023-03-06T07:30:57.448Z,24.35
2023-03-06T07:31:57.397Z,24.35
2023-03-06T07:32:58.255Z,24.30
2023-03-06T07:33:57.934Z,24.63
2023-03-06T07:35:13.740Z,24.63
2023-03-06T07:35:58.510Z,24.58
2023-03-06T07:36:57.268Z,24.53
2023-03-06T07:37:57.279Z,24.54
2023-03-06T07:38:57.571Z,24.62
2023-03-06T07:39:57.322Z,24.46
2023-03-06T07:40:58.002Z,24.99
2023-03-06T07:41:58.345Z,24.44
2023-03-06T07:43:09.230Z,24.27
2023-03-06T07:43:57.304Z,24.24
2023-03-06T07:44:57.274Z,22.86
2023-03-06T07:45:57.718Z,23.14
2023-03-06T07:46:57.390Z,22.99
2023-03-06T07:47:57.382Z,23.19
2023-03-06T07:48:57.151Z,23.00
2023-03-06T07:49:57.217Z,23.22
2023-03-06T07:50:57.133Z,23.31
2023-03-06T07:51:57.128Z,23.54
2023-03-06T07:52:57.576Z,23.53
2023-03-06T07:53:57.153Z,23.68
2023-03-06T07:54:57.142Z,23.80
2023-03-06T07:55:57.231Z,23.91
2023-03-06T07:56:57.029Z,23.80
2023-03-06T07:57:57.172Z,23.84
2023-03-06T07:58:57.215Z,23.96
2023-03-06T07:59:57.089Z,23.86
2023-03-06T08:00:57.013Z,23.59
2023-03-06T08:01:57.076Z,23.66
2023-03-06T08:02:57.124Z,23.66
2023-03-06T08:03:57.134Z,23.48
2023-03-06T08:04:56.989Z,23.57
2023-03-06T08:05:57.098Z,23.57
2023-03-06T08:06:56.953Z,23.62
2023-03-06T08:07:56.932Z,23.75
2023-03-06T08:08:56.984Z,23.46
2023-03-06T08:09:58.104Z,23.56
2023-03-06T08:10:56.825Z,23.45
2023-03-06T08:11:56.792Z,23.37
2023-03-06T08:12:56.851Z,23.65
2023-03-06T08:13:56.781Z,23.65
2023-03-06T08:14:56.723Z,23.60
2023-03-06T08:15:56.765Z,23.68
2023-03-06T08:16:56.684Z,23.64
2023-03-06T08:17:56.607Z,23.70
2023-03-06T08:18:56.578Z,23.64
2023-03-06T08:19:56.636Z,23.74
2023-03-06T08:20:56.688Z,23.70
2023-03-06T08:21:56.456Z,23.46
2023-03-06T08:23:00.278Z,23.63
2023-03-06T08:23:56.407Z,23.69
2023-03-06T08:24:56.406Z,23.76
2023-03-06T08:25:56.330Z,23.76
2023-03-06T08:26:56.326Z,23.72
2023-03-06T08:27:56.400Z,23.85
2023-03-06T08:28:56.297Z,23.94
2023-03-06T08:29:56.283Z,24.04
2023-03-06T08:30:56.370Z,24.01
2023-03-06T08:31:56.372Z,24.11
2023-03-06T08:32:56.170Z,23.84
2023-03-06T08:33:57.048Z,23.78
2023-03-06T08:34:56.142Z,23.87
2023-03-06T08:35:56.385Z,23.82
2023-03-06T08:36:56.463Z,23.67
2023-03-06T08:37:56.120Z,23.49
2023-03-06T08:38:56.014Z,23.08
2023-03-06T08:39:55.924Z,22.86
2023-03-06T08:40:56.056Z,22.86
2023-03-06T08:41:55.892Z,23.28
2023-03-06T08:42:55.835Z,22.78
2023-03-06T08:43:55.825Z,22.19
2023-03-06T08:44:55.744Z,21.79
2023-03-06T08:45:56.883Z,21.32
2023-03-06T08:46:55.784Z,21.41
2023-03-06T08:47:56.718Z,21.75
2023-03-06T08:48:55.790Z,22.92
2023-03-06T08:49:55.615Z,23.28
2023-03-06T08:50:55.642Z,23.11
2023-03-06T08:51:55.912Z,21.96
2023-03-06T08:52:55.511Z,20.52
2023-03-06T08:53:55.651Z,20.02
2023-03-06T08:54:55.685Z,19.71
2023-03-06T08:55:55.471Z,19.43
2023-03-06T08:56:55.541Z,19.20
2023-03-06T08:57:55.406Z,18.84
2023-03-06T08:58:55.437Z,18.62
2023-03-06T08:59:55.498Z,18.93
2023-03-06T09:00:55.360Z,19.19
2023-03-06T09:01:55.397Z,18.65
2023-03-06T09:02:55.349Z,18.95
2023-03-06T09:03:55.267Z,18.76
2023-03-06T09:04:55.423Z,18.98
2023-03-06T09:05:55.229Z,18.91
2023-03-06T09:06:55.636Z,18.92
2023-03-06T09:07:55.785Z,19.43
2023-03-06T09:08:56.786Z,20.65
2023-03-06T09:09:55.180Z,20.65
2023-03-06T09:10:55.245Z,20.59
2023-03-06T09:11:55.154Z,20.98
2023-03-06T09:12:55.414Z,21.29
2023-03-06T09:13:55.082Z,21.30
2023-03-06T09:14:55.148Z,21.44
2023-03-06T09:15:56.424Z,21.49
2023-03-06T09:16:55.116Z,21.32
2023-03-06T09:17:55.062Z,20.59
2023-03-06T09:18:55.091Z,20.19
2023-03-06T09:19:54.986Z,20.16
2023-03-06T09:20:54.963Z,19.62
2023-03-06T09:21:55.099Z,19.62
2023-03-06T09:22:54.891Z,19.17
2023-03-06T09:23:54.962Z,19.13
2023-03-06T09:24:54.835Z,19.20
2023-03-06T09:25:54.853Z,18.93
2023-03-06T09:26:54.861Z,18.90
2023-03-06T09:28:08.987Z,19.00
2023-03-06T09:28:56.657Z,19.01
2023-03-06T09:29:54.839Z,19.00
2023-03-06T09:30:54.891Z,18.86
2023-03-06T09:31:55.901Z,19.19
2023-03-06T09:32:54.886Z,19.94
2023-03-06T09:33:55.053Z,19.54
2023-03-06T09:34:55.307Z,19.49
2023-03-06T09:35:54.802Z,19.40
2023-03-06T09:36:57.189Z,19.77
2023-03-06T09:37:54.735Z,19.32
2023-03-06T09:38:54.652Z,19.55
2023-03-06T09:39:54.641Z,19.82
2023-03-06T09:40:54.729Z,19.79
2023-03-06T09:41:54.582Z,19.51
2023-03-06T09:42:54.638Z,19.48
2023-03-06T09:43:54.632Z,19.63
2023-03-06T09:44:54.633Z,20.04
2023-03-06T09:45:54.545Z,19.79
2023-03-06T09:46:54.526Z,19.73
2023-03-06T09:47:54.481Z,19.57
2023-03-06T09:48:54.545Z,19.85
2023-03-06T09:49:54.517Z,20.11
2023-03-06T09:50:54.736Z,20.59
2023-03-06T09:51:54.354Z,20.90
2023-03-06T09:52:54.412Z,21.19
2023-03-06T09:53:54.336Z,21.49
2023-03-06T09:54:54.349Z,22.40
2023-03-06T09:55:54.313Z,22.90
2023-03-06T09:56:54.571Z,23.12
2023-03-06T09:57:54.258Z,23.15
2023-03-06T09:58:54.335Z,22.90
2023-03-06T09:59:54.504Z,23.04
2023-03-06T10:00:54.293Z,22.85
2023-03-06T10:01:54.168Z,22.96
2023-03-06T10:02:54.276Z,22.87
2023-03-06T10:03:54.095Z,22.82
2023-03-06T10:05:54.106Z,22.99
2023-03-06T10:06:54.042Z,22.88
2023-03-06T10:07:54.429Z,22.72
2023-03-06T10:08:53.993Z,22.43
2023-03-06T10:09:53.990Z,22.29
2023-03-06T10:10:53.917Z,22.20
2023-03-06T10:11:53.918Z,22.26
2023-03-06T10:12:53.883Z,22.35
2023-03-06T10:13:53.826Z,22.31
2023-03-06T10:14:53.940Z,22.25
2023-03-06T10:15:53.811Z,22.36
2023-03-06T10:16:53.841Z,22.50
2023-03-06T10:17:53.736Z,22.49
2023-03-06T10:18:53.728Z,22.55
2023-03-06T10:19:53.840Z,22.46
2023-03-06T10:20:53.642Z,22.26
2023-03-06T10:21:53.611Z,22.46
2023-03-06T10:23:01.366Z,22.31
2023-03-06T10:23:54.671Z,22.29
2023-03-06T10:24:53.585Z,22.12
2023-03-06T10:25:53.530Z,22.01
2023-03-06T10:26:53.620Z,21.97
2023-03-06T10:27:53.644Z,22.10
2023-03-06T10:28:53.451Z,22.10
2023-03-06T10:30:02.740Z,21.82
2023-03-06T10:30:54.387Z,22.17
2023-03-06T10:31:53.897Z,22.31
2023-03-06T10:32:53.413Z,21.97
2023-03-06T10:33:53.274Z,21.98
2023-03-06T10:34:53.250Z,22.15
2023-03-06T10:35:53.371Z,21.96
2023-03-06T10:36:53.213Z,21.73
2023-03-06T10:37:53.187Z,21.80
2023-03-06T10:38:53.155Z,21.89
2023-03-06T10:39:53.121Z,21.87
2023-03-06T10:40:54.958Z,22.27
2023-03-06T10:41:53.015Z,22.23
2023-03-06T10:43:05.095Z,22.31
2023-03-06T10:43:54.929Z,22.63
2023-03-06T10:44:52.899Z,22.68
2023-03-06T10:45:52.892Z,22.24
2023-03-06T10:46:52.881Z,22.14
2023-03-06T10:47:52.794Z,22.22
2023-03-06T10:48:52.737Z,22.17
2023-03-06T10:49:52.695Z,22.16
2023-03-06T10:50:53.027Z,22.26
2023-03-06T10:51:52.917Z,22.34
2023-03-06T10:52:52.629Z,22.53
2023-03-06T10:53:52.537Z,22.71
2023-03-06T10:54:52.521Z,22.58
2023-03-06T10:55:52.469Z,22.83
2023-03-06T10:56:52.401Z,22.52
2023-03-06T10:57:52.494Z,22.97
2023-03-06T10:58:52.336Z,23.12
2023-03-06T10:59:52.365Z,22.84
2023-03-06T11:00:53.349Z,23.49
2023-03-06T11:01:52.336Z,23.77
2023-03-06T11:02:52.235Z,23.99
2023-03-06T11:03:52.180Z,24.05
2023-03-06T11:04:52.174Z,24.11
2023-03-06T11:05:52.288Z,24.37
2023-03-06T11:06:52.107Z,24.18
2023-03-06T11:07:52.106Z,24.28
2023-03-06T11:08:52.153Z,24.27
2023-03-06T11:09:52.175Z,24.17
2023-03-06T11:10:52.222Z,24.05
2023-03-06T11:11:52.185Z,23.84
2023-03-06T11:12:52.162Z,23.37
2023-03-06T11:13:52.145Z,22.34
2023-03-06T11:14:52.150Z,22.25
2023-03-06T11:15:52.150Z,21.38
2023-03-06T11:16:52.151Z,21.18
2023-03-06T11:17:52.207Z,20.63
2023-03-06T11:18:52.942Z,20.52
2023-03-06T11:19:52.140Z,20.41
2023-03-06T11:20:53.123Z,21.18
2023-03-06T11:21:51.827Z,21.38
2023-03-06T11:22:51.995Z,21.76
2023-03-06T11:23:52.068Z,22.08
2023-03-06T11:24:51.743Z,22.14
2023-03-06T11:25:51.826Z,22.42
2023-03-06T11:26:51.681Z,22.58
2023-03-06T11:27:51.604Z,22.67
2023-03-06T11:28:51.601Z,22.73
2023-03-06T11:29:51.747Z,22.99
2023-03-06T11:30:51.649Z,23.08
2023-03-06T11:31:51.593Z,23.10
2023-03-06T11:32:51.423Z,22.99
2023-03-06T11:33:51.432Z,23.46
2023-03-06T11:34:51.760Z,23.46
2023-03-06T11:35:51.387Z,23.30
2023-03-06T11:36:51.259Z,23.68
2023-03-06T11:37:51.195Z,23.54
2023-03-06T11:38:51.168Z,23.58
2023-03-06T11:39:51.230Z,23.25
2023-03-06T11:40:52.050Z,23.44
2023-03-06T11:41:51.907Z,23.73
2023-03-06T11:42:51.051Z,23.85
2023-03-06T11:43:51.001Z,24.08
2023-03-06T11:44:50.990Z,24.33
2023-03-06T11:45:50.953Z,24.46
2023-03-06T11:46:50.929Z,24.37
2023-03-06T11:48:51.496Z,24.40
2023-03-06T11:49:50.875Z,24.47
2023-03-06T11:50:50.886Z,24.43
2023-03-06T11:51:50.857Z,24.77
2023-03-06T11:52:50.777Z,24.85
2023-03-06T11:53:50.725Z,24.75
2023-03-06T11:54:50.748Z,25.01
2023-03-06T11:55:50.771Z,24.70
2023-03-06T11:56:50.680Z,24.97
2023-03-06T11:57:50.753Z,25.15
2023-03-06T11:58:50.835Z,25.01
2023-03-06T11:59:50.561Z,25.03
2023-03-06T12:00:50.512Z,25.12
2023-03-06T12:01:50.543Z,25.14
2023-03-06T12:02:50.392Z,25.00
2023-03-06T12:03:50.494Z,24.67
2023-03-06T12:04:50.324Z,24.75
2023-03-06T12:05:50.303Z,24.90
2023-03-06T12:06:50.383Z,24.72
2023-03-06T12:07:50.222Z,24.62
2023-03-06T12:08:50.237Z,25.20
2023-03-06T12:09:50.265Z,25.15
2023-03-06T12:10:51.964Z,25.28
2023-03-06T12:11:50.207Z,25.34
2023-03-06T12:12:50.585Z,25.61
2023-03-06T12:13:49.982Z,25.41
2023-03-06T12:14:50.464Z,25.38
2023-03-06T12:16:51.118Z,25.44
2023-03-06T12:29:50.877Z,23.16
2023-03-06T12:32:53.127Z,23.49
2023-03-06T12:42:48.847Z,22.65
2023-03-06T12:43:48.827Z,22.61
2023-03-06T12:44:48.766Z,22.62
2023-03-06T12:45:48.729Z,22.60
2023-03-06T12:46:48.692Z,22.50
2023-03-06T12:47:48.683Z,22.18
2023-03-06T12:48:48.567Z,22.24
2023-03-06T12:49:48.605Z,22.15
2023-03-06T12:50:48.517Z,22.15
2023-03-06T12:51:48.432Z,22.01
2023-03-06T12:52:49.142Z,21.78
2023-03-06T12:53:48.431Z,21.81
2023-03-06T12:54:48.372Z,21.70
2023-03-06T12:55:48.405Z,21.80
2023-03-06T12:56:48.235Z,21.69
2023-03-06T12:57:48.337Z,21.52
2023-03-06T12:58:48.145Z,21.63
2023-03-06T12:59:48.123Z,21.58
2023-03-06T13:00:52.616Z,21.55
2023-03-06T13:01:49.098Z,21.48
2023-03-06T13:02:49.567Z,21.48
2023-03-06T13:03:47.884Z,21.37
2023-03-06T13:04:47.875Z,21.29
2023-03-06T13:05:47.808Z,21.34
2023-03-06T13:06:50.864Z,21.32
2023-03-06T13:07:47.711Z,21.23
2023-03-06T13:08:47.676Z,21.32
2023-03-06T13:09:47.739Z,21.20
2023-03-06T13:10:47.587Z,21.25
2023-03-06T13:11:47.573Z,21.25
2023-03-06T13:12:47.524Z,21.34
2023-03-06T13:13:47.432Z,21.34
2023-03-06T13:14:54.232Z,21.51
2023-03-06T13:15:48.352Z,21.43
2023-03-06T13:16:47.438Z,21.50
2023-03-06T13:17:47.279Z,21.31
2023-03-06T13:18:47.248Z,21.36
2023-03-06T13:19:47.220Z,21.40
2023-03-06T13:20:47.579Z,21.24
2023-03-06T13:21:47.093Z,21.32
2023-03-06T13:22:47.106Z,21.41
2023-03-06T13:23:47.122Z,21.38
2023-03-06T13:24:47.542Z,21.33
2023-03-06T13:25:46.942Z,21.33
2023-03-06T13:26:46.915Z,21.25
2023-03-06T13:27:47.393Z,21.22
2023-03-06T13:28:46.818Z,21.31
2023-03-06T13:29:46.717Z,21.24
2023-03-06T13:30:46.745Z,21.08
2023-03-06T13:31:46.638Z,21.24
2023-03-06T13:32:46.572Z,21.16
2023-03-06T13:33:46.655Z,21.17
2023-03-06T13:34:46.499Z,21.04
2023-03-06T13:35:46.565Z,20.48
2023-03-06T13:36:46.378Z,20.54
2023-03-06T13:37:46.345Z,21.07
2023-03-06T13:38:46.314Z,20.46
2023-03-06T13:39:46.299Z,19.65
2023-03-06T13:40:46.261Z,19.75
2023-03-06T13:41:46.877Z,19.30
2023-03-06T13:42:46.196Z,17.60
2023-03-06T13:43:46.277Z,18.02
2023-03-06T13:44:46.140Z,18.39
2023-03-06T13:45:46.093Z,18.27
2023-03-06T13:46:46.029Z,17.88
2023-03-06T13:48:47.024Z,17.52
2023-03-06T13:49:45.930Z,17.53
2023-03-06T13:50:45.940Z,17.61
2023-03-06T13:51:45.905Z,17.64
2023-03-06T13:52:45.914Z,17.50
2023-03-06T13:53:45.781Z,17.64
2023-03-06T13:54:45.745Z,17.78
2023-03-06T13:55:45.703Z,18.26
2023-03-06T13:57:45.677Z,18.24
2023-03-06T13:58:45.620Z,17.90
2023-03-06T13:59:45.648Z,18.08
2023-03-06T14:00:45.596Z,17.88
2023-03-06T14:01:45.541Z,17.83
2023-03-06T14:02:45.571Z,17.69
2023-03-06T14:03:45.562Z,17.83
2023-03-06T14:05:45.434Z,16.98
2023-03-06T14:06:45.403Z,16.89
2023-03-06T14:07:45.276Z,16.69
2023-03-06T14:08:45.241Z,16.62
2023-03-06T14:09:45.258Z,16.64
2023-03-06T14:10:45.396Z,16.53
2023-03-06T14:11:45.138Z,16.38
2023-03-06T14:12:45.110Z,16.55
2023-03-06T14:13:47.626Z,16.84
2023-03-06T14:14:45.097Z,16.84
2023-03-06T14:15:45.135Z,16.92
2023-03-06T14:16:50.163Z,17.20
2023-03-06T14:18:44.968Z,16.95
2023-03-06T14:19:44.939Z,16.81
2023-03-06T14:20:44.946Z,17.13
2023-03-06T14:21:44.884Z,17.49
2023-03-06T14:22:44.850Z,17.50
2023-03-06T14:23:44.799Z,17.64
2023-03-06T14:24:44.768Z,17.78
2023-03-06T14:34:44.490Z,18.15
2023-03-06T14:41:44.262Z,17.63
2023-03-06T15:50:42.977Z,20.65
2023-03-06T15:51:45.575Z,20.69
2023-03-06T15:52:42.923Z,20.68
2023-03-06T15:53:42.777Z,20.81
2023-03-06T15:54:42.758Z,20.83
2023-03-06T15:55:42.725Z,20.81
2023-03-06T15:56:42.694Z,20.84
2023-03-06T15:57:42.696Z,20.97
2023-03-06T15:58:42.709Z,20.94
2023-03-06T15:59:42.653Z,20.93
2023-03-06T16:00:42.659Z,21.01
2023-03-06T16:01:43.093Z,21.06
2023-03-06T16:02:42.420Z,21.11
2023-03-06T16:03:42.394Z,21.13
2023-03-06T16:04:42.436Z,21.13
2023-03-06T16:05:42.369Z,21.18
2023-03-06T16:06:42.296Z,21.21
2023-03-06T16:07:42.293Z,21.29
2023-03-06T16:08:43.007Z,21.32
2023-03-06T16:09:47.152Z,21.40
2023-03-06T16:10:43.092Z,21.44
2023-03-06T16:11:44.009Z,21.51
2023-03-06T16:12:42.086Z,21.48
2023-03-06T16:13:42.207Z,21.54
2023-03-06T16:14:41.951Z,21.63
2023-03-06T16:15:41.942Z,21.70
2023-03-06T16:16:41.935Z,21.78
2023-03-06T16:17:41.834Z,21.80
2023-03-06T16:18:41.840Z,21.89
2023-03-06T16:19:42.590Z,21.84
2023-03-06T16:20:41.734Z,21.90
2023-03-06T16:21:41.674Z,21.95
2023-03-06T16:22:42.512Z,21.98